sensor_id;sensor_type;location;lat;lon;timestamp;temperature;humidity
16867;DHT22;8550;52.596;13.320;2022-08-19T00:03:29;21.00;99.90
16867;DHT22;8550;52.596;13.320;2022-08-19T00:08:31;21.00;99.90
16867;DHT22;8550;52.596;13.320;2022-08-19T00:13:34;21.00;99.90
16867;DHT22;8550;52.596;13.320;2022-08-19T00:18:37;21.00;99.90
16867;DHT22;8550;52.596;13.320;2022-08-19T00:23:39;20.90;99.90
16867;DHT22;8550;52.596;13.320;2022-08-19T00:28:41;21.00;99.90
16867;DHT22;8550;52.596;13.320;2022-08-19T00:33:44;21.00;99.90
16867;DHT22;8550;52.596;13.320;2022-08-19T00:38:46;21.10;99.90
16867;DHT22;8550;52.596;13.320;2022-08-19T00:44:00;21.00;99.90
16867;DHT22;8550;52.596;13.320;2022-08-19T00:49:10;21.10;99.90
16867;DHT22;8550;52.596;13.320;2022-08-19T00:54:16;21.00;99.90
16867;DHT22;8550;52.596;13.320;2022-08-19T00:59:19;21.00;99.90
16867;DHT22;8550;52.596;13.320;2022-08-19T01:04:24;21.00;99.90
16867;DHT22;8550;52.596;13.320;2022-08-19T01:09:25;21.10;99.90
16867;DHT22;8550;52.596;13.320;2022-08-19T01:14:29;21.10;99.90
16867;DHT22;8550;52.596;13.320;2022-08-19T01:19:36;21.00;99.90
16867;DHT22;8550;52.596;13.320;2022-08-19T01:24:40;21.10;99.90
16867;DHT22;8550;52.596;13.320;2022-08-19T01:29:43;21.10;99.90
16867;DHT22;8550;52.596;13.320;2022-08-19T01:34:45;21.00;99.90
16867;DHT22;8550;52.596;13.320;2022-08-19T01:39:49;21.00;99.90
16867;DHT22;8550;52.596;13.320;2022-08-19T01:44:50;21.00;99.90
16867;DHT22;8550;52.596;13.320;2022-08-19T01:49:52;21.00;99.90
16867;DHT22;8550;52.596;13.320;2022-08-19T01:54:56;21.00;99.90
16867;DHT22;8550;52.596;13.320;2022-08-19T01:59:58;21.00;99.90
16867;DHT22;8550;52.596;13.320;2022-08-19T02:05:00;20.90;99.90
16867;DHT22;8550;52.596;13.320;2022-08-19T02:10:04;20.90;99.90
16867;DHT22;8550;52.596;13.320;2022-08-19T02:15:06;20.90;99.90
16867;DHT22;8550;52.596;13.320;2022-08-19T02:20:10;20.90;99.90
16867;DHT22;8550;52.596;13.320;2022-08-19T02:25:15;20.80;99.90
16867;DHT22;8550;52.596;13.320;2022-08-19T02:30:17;20.70;99.90
16867;DHT22;8550;52.596;13.320;2022-08-19T02:35:20;20.70;99.90
16867;DHT22;8550;52.596;13.320;2022-08-19T02:40:23;20.50;99.90
16867;DHT22;8550;52.596;13.320;2022-08-19T02:45:25;20.40;99.90
16867;DHT22;8550;52.596;13.320;2022-08-19T02:50:27;20.40;99.90
16867;DHT22;8550;52.596;13.320;2022-08-19T02:55:30;20.40;99.90
16867;DHT22;8550;52.596;13.320;2022-08-19T03:00:32;20.30;99.90
16867;DHT22;8550;52.596;13.320;2022-08-19T03:05:34;20.30;99.90
16867;DHT22;8550;52.596;13.320;2022-08-19T03:10:41;20.30;99.90
16867;DHT22;8550;52.596;13.320;2022-08-19T03:15:46;20.20;99.90
16867;DHT22;8550;52.596;13.320;2022-08-19T03:20:51;20.20;99.90
16867;DHT22;8550;52.596;13.320;2022-08-19T03:25:56;20.30;99.90
16867;DHT22;8550;52.596;13.320;2022-08-19T03:30:59;20.20;99.90
16867;DHT22;8550;52.596;13.320;2022-08-19T03:36:05;20.20;99.90
16867;DHT22;8550;52.596;13.320;2022-08-19T03:41:11;20.10;99.90
16867;DHT22;8550;52.596;13.320;2022-08-19T03:46:16;20.10;99.90
16867;DHT22;8550;52.596;13.320;2022-08-19T03:51:22;20.10;99.90
16867;DHT22;8550;52.596;13.320;2022-08-19T03:56:26;20.00;99.90
16867;DHT22;8550;52.596;13.320;2022-08-19T04:01:34;20.00;99.90
16867;DHT22;8550;52.596;13.320;2022-08-19T04:06:38;20.10;99.90
16867;DHT22;8550;52.596;13.320;2022-08-19T04:11:44;20.10;99.90
16867;DHT22;8550;52.596;13.320;2022-08-19T04:16:47;20.10;99.90
16867;DHT22;8550;52.596;13.320;2022-08-19T04:21:53;20.10;99.90
16867;DHT22;8550;52.596;13.320;2022-08-19T04:26:59;20.20;99.90
16867;DHT22;8550;52.596;13.320;2022-08-19T04:32:01;20.10;99.90
16867;DHT22;8550;52.596;13.320;2022-08-19T04:37:06;20.20;99.90
16867;DHT22;8550;52.596;13.320;2022-08-19T04:42:14;20.30;99.90
16867;DHT22;8550;52.596;13.320;2022-08-19T04:47:33;20.20;99.90
16867;DHT22;8550;52.596;13.320;2022-08-19T04:52:35;20.20;99.90
16867;DHT22;8550;52.596;13.320;2022-08-19T04:57:38;20.10;99.90
16867;DHT22;8550;52.596;13.320;2022-08-19T05:02:40;20.10;99.90
16867;DHT22;8550;52.596;13.320;2022-08-19T05:07:42;20.10;99.90
16867;DHT22;8550;52.596;13.320;2022-08-19T05:12:45;20.20;99.90
16867;DHT22;8550;52.596;13.320;2022-08-19T05:17:47;20.30;99.90
16867;DHT22;8550;52.596;13.320;2022-08-19T05:23:03;20.30;99.90
16867;DHT22;8550;52.596;13.320;2022-08-19T05:28:06;20.40;99.90
16867;DHT22;8550;52.596;13.320;2022-08-19T05:33:08;20.50;99.90
16867;DHT22;8550;52.596;13.320;2022-08-19T05:38:12;20.70;99.90
16867;DHT22;8550;52.596;13.320;2022-08-19T05:43:15;20.90;99.90
16867;DHT22;8550;52.596;13.320;2022-08-19T05:48:17;21.10;99.90
16867;DHT22;8550;52.596;13.320;2022-08-19T05:53:20;21.10;99.90
16867;DHT22;8550;52.596;13.320;2022-08-19T05:58:24;21.20;99.90
16867;DHT22;8550;52.596;13.320;2022-08-19T06:03:26;21.40;99.90
16867;DHT22;8550;52.596;13.320;2022-08-19T06:08:29;21.70;99.90
16867;DHT22;8550;52.596;13.320;2022-08-19T06:13:32;22.00;99.90
16867;DHT22;8550;52.596;13.320;2022-08-19T06:18:34;22.20;99.90
16867;DHT22;8550;52.596;13.320;2022-08-19T06:23:36;22.10;99.90
16867;DHT22;8550;52.596;13.320;2022-08-19T06:28:39;22.10;99.90
16867;DHT22;8550;52.596;13.320;2022-08-19T06:33:44;22.10;99.90
16867;DHT22;8550;52.596;13.320;2022-08-19T06:38:47;22.20;99.90
16867;DHT22;8550;52.596;13.320;2022-08-19T06:43:50;22.20;99.90
16867;DHT22;8550;52.596;13.320;2022-08-19T06:48:52;22.30;99.90
16867;DHT22;8550;52.596;13.320;2022-08-19T06:53:55;22.50;99.90
16867;DHT22;8550;52.596;13.320;2022-08-19T06:58:59;22.50;99.90
16867;DHT22;8550;52.596;13.320;2022-08-19T07:04:00;22.40;99.90
16867;DHT22;8550;52.596;13.320;2022-08-19T07:09:03;22.40;99.90
16867;DHT22;8550;52.596;13.320;2022-08-19T07:14:06;22.60;99.90
16867;DHT22;8550;52.596;13.320;2022-08-19T07:19:08;22.70;99.90
16867;DHT22;8550;52.596;13.320;2022-08-19T07:24:10;22.80;99.90
16867;DHT22;8550;52.596;13.320;2022-08-19T07:29:14;22.70;99.90
16867;DHT22;8550;52.596;13.320;2022-08-19T07:34:17;22.80;99.90
16867;DHT22;8550;52.596;13.320;2022-08-19T07:39:21;22.70;99.90
16867;DHT22;8550;52.596;13.320;2022-08-19T07:44:25;22.70;99.90
16867;DHT22;8550;52.596;13.320;2022-08-19T07:49:27;22.50;99.90
16867;DHT22;8550;52.596;13.320;2022-08-19T07:54:31;22.40;99.90
16867;DHT22;8550;52.596;13.320;2022-08-19T07:59:36;22.60;99.90
16867;DHT22;8550;52.596;13.320;2022-08-19T08:04:38;22.70;99.90
16867;DHT22;8550;52.596;13.320;2022-08-19T08:09:57;22.60;99.90
16867;DHT22;8550;52.596;13.320;2022-08-19T08:15:05;22.50;99.90
16867;DHT22;8550;52.596;13.320;2022-08-19T08:20:08;22.60;99.90
16867;DHT22;8550;52.596;13.320;2022-08-19T08:25:14;22.80;99.90
16867;DHT22;8550;52.596;13.320;2022-08-19T08:30:19;22.70;99.90
16867;DHT22;8550;52.596;13.320;2022-08-19T08:35:23;23.00;99.90
16867;DHT22;8550;52.596;13.320;2022-08-19T08:40:28;23.10;99.90
16867;DHT22;8550;52.596;13.320;2022-08-19T08:45:33;23.10;99.90
16867;DHT22;8550;52.596;13.320;2022-08-19T08:50:41;23.10;99.90
16867;DHT22;8550;52.596;13.320;2022-08-19T08:55:44;23.00;99.90
16867;DHT22;8550;52.596;13.320;2022-08-19T09:00:49;23.10;99.90
16867;DHT22;8550;52.596;13.320;2022-08-19T09:05:57;22.90;99.90
16867;DHT22;8550;52.596;13.320;2022-08-19T09:11:04;22.90;99.90
16867;DHT22;8550;52.596;13.320;2022-08-19T09:16:11;22.90;99.90
16867;DHT22;8550;52.596;13.320;2022-08-19T09:21:15;22.90;99.90
16867;DHT22;8550;52.596;13.320;2022-08-19T09:26:20;23.10;99.90
16867;DHT22;8550;52.596;13.320;2022-08-19T09:31:26;23.40;99.90
16867;DHT22;8550;52.596;13.320;2022-08-19T09:36:30;23.60;99.90
16867;DHT22;8550;52.596;13.320;2022-08-19T09:41:36;24.30;99.90
16867;DHT22;8550;52.596;13.320;2022-08-19T09:46:39;24.70;99.90
16867;DHT22;8550;52.596;13.320;2022-08-19T09:51:41;24.70;99.90
16867;DHT22;8550;52.596;13.320;2022-08-19T09:56:43;24.40;99.90
16867;DHT22;8550;52.596;13.320;2022-08-19T10:01:46;24.50;99.90
16867;DHT22;8550;52.596;13.320;2022-08-19T10:06:49;24.70;99.90
16867;DHT22;8550;52.596;13.320;2022-08-19T10:11:51;25.10;99.90
16867;DHT22;8550;52.596;13.320;2022-08-19T10:16:55;24.90;99.90
16867;DHT22;8550;52.596;13.320;2022-08-19T10:21:56;24.90;99.90
16867;DHT22;8550;52.596;13.320;2022-08-19T10:26:59;25.10;99.90
16867;DHT22;8550;52.596;13.320;2022-08-19T10:32:06;25.20;99.90
16867;DHT22;8550;52.596;13.320;2022-08-19T10:37:08;24.70;99.90
16867;DHT22;8550;52.596;13.320;2022-08-19T10:42:11;24.50;99.90
16867;DHT22;8550;52.596;13.320;2022-08-19T10:47:14;24.30;99.90
16867;DHT22;8550;52.596;13.320;2022-08-19T10:52:16;24.00;99.90
16867;DHT22;8550;52.596;13.320;2022-08-19T10:57:32;24.00;99.90
16867;DHT22;8550;52.596;13.320;2022-08-19T11:02:35;24.20;99.90
16867;DHT22;8550;52.596;13.320;2022-08-19T11:07:38;24.20;99.90
16867;DHT22;8550;52.596;13.320;2022-08-19T11:12:40;24.10;99.90
16867;DHT22;8550;52.596;13.320;2022-08-19T11:17:43;24.00;99.90
16867;DHT22;8550;52.596;13.320;2022-08-19T11:22:45;23.90;99.90
16867;DHT22;8550;52.596;13.320;2022-08-19T11:27:47;24.00;99.90
16867;DHT22;8550;52.596;13.320;2022-08-19T11:32:52;23.80;99.90
16867;DHT22;8550;52.596;13.320;2022-08-19T11:37:54;23.80;99.90
16867;DHT22;8550;52.596;13.320;2022-08-19T11:42:56;23.80;99.90
16867;DHT22;8550;52.596;13.320;2022-08-19T11:48:00;24.10;99.90
16867;DHT22;8550;52.596;13.320;2022-08-19T11:53:02;24.20;99.90
16867;DHT22;8550;52.596;13.320;2022-08-19T11:58:04;24.20;99.90
16867;DHT22;8550;52.596;13.320;2022-08-19T12:03:08;24.10;99.90
16867;DHT22;8550;52.596;13.320;2022-08-19T12:08:10;24.00;99.90
16867;DHT22;8550;52.596;13.320;2022-08-19T12:13:13;24.10;99.90
16867;DHT22;8550;52.596;13.320;2022-08-19T12:18:20;23.90;99.90
16867;DHT22;8550;52.596;13.320;2022-08-19T12:23:22;24.00;99.90
16867;DHT22;8550;52.596;13.320;2022-08-19T12:28:25;23.80;99.90
16867;DHT22;8550;52.596;13.320;2022-08-19T12:33:28;23.70;99.90
16867;DHT22;8550;52.596;13.320;2022-08-19T12:38:33;23.70;99.90
16867;DHT22;8550;52.596;13.320;2022-08-19T12:43:36;23.80;99.90
16867;DHT22;8550;52.596;13.320;2022-08-19T12:48:40;24.10;99.90
16867;DHT22;8550;52.596;13.320;2022-08-19T12:53:43;24.70;99.90
16867;DHT22;8550;52.596;13.320;2022-08-19T12:58:45;25.00;99.90
16867;DHT22;8550;52.596;13.320;2022-08-19T13:03:48;24.60;99.90
16867;DHT22;8550;52.596;13.320;2022-08-19T13:08:50;25.00;99.90
16867;DHT22;8550;52.596;13.320;2022-08-19T13:13:52;25.60;99.90
16867;DHT22;8550;52.596;13.320;2022-08-19T13:18:57;27.60;99.90
16867;DHT22;8550;52.596;13.320;2022-08-19T13:23:59;29.30;99.90
16867;DHT22;8550;52.596;13.320;2022-08-19T13:29:01;30.20;99.90
16867;DHT22;8550;52.596;13.320;2022-08-19T13:34:29;28.90;99.90
16867;DHT22;8550;52.596;13.320;2022-08-19T13:39:33;26.90;99.90
16867;DHT22;8550;52.596;13.320;2022-08-19T13:44:35;26.20;99.90
16867;DHT22;8550;52.596;13.320;2022-08-19T13:49:38;26.20;99.90
16867;DHT22;8550;52.596;13.320;2022-08-19T13:54:40;26.20;99.90
16867;DHT22;8550;52.596;13.320;2022-08-19T13:59:42;26.00;99.90
16867;DHT22;8550;52.596;13.320;2022-08-19T14:04:45;26.00;99.90
16867;DHT22;8550;52.596;13.320;2022-08-19T14:09:47;25.60;99.90
16867;DHT22;8550;52.596;13.320;2022-08-19T14:14:49;25.40;99.90
16867;DHT22;8550;52.596;13.320;2022-08-19T14:19:57;25.10;99.90
16867;DHT22;8550;52.596;13.320;2022-08-19T14:24:59;24.70;99.90
16867;DHT22;8550;52.596;13.320;2022-08-19T14:30:01;24.70;99.90
16867;DHT22;8550;52.596;13.320;2022-08-19T14:35:05;24.80;99.90
16867;DHT22;8550;52.596;13.320;2022-08-19T14:40:09;25.00;99.90
16867;DHT22;8550;52.596;13.320;2022-08-19T14:45:12;25.10;99.90
16867;DHT22;8550;52.596;13.320;2022-08-19T14:50:15;25.20;99.90
16867;DHT22;8550;52.596;13.320;2022-08-19T14:55:17;24.70;99.90
16867;DHT22;8550;52.596;13.320;2022-08-19T15:00:19;24.60;99.90
16867;DHT22;8550;52.596;13.320;2022-08-19T15:05:22;24.60;99.90
16867;DHT22;8550;52.596;13.320;2022-08-19T15:10:24;24.60;99.90
16867;DHT22;8550;52.596;13.320;2022-08-19T15:15:26;24.70;99.90
16867;DHT22;8550;52.596;13.320;2022-08-19T15:20:30;24.60;99.90
16867;DHT22;8550;52.596;13.320;2022-08-19T15:25:32;24.50;99.90
16867;DHT22;8550;52.596;13.320;2022-08-19T15:30:34;24.10;99.90
16867;DHT22;8550;52.596;13.320;2022-08-19T15:35:38;23.80;99.90
16867;DHT22;8550;52.596;13.320;2022-08-19T15:40:40;23.70;99.90
16867;DHT22;8550;52.596;13.320;2022-08-19T15:45:43;23.50;99.90
16867;DHT22;8550;52.596;13.320;2022-08-19T15:50:46;23.50;99.90
16867;DHT22;8550;52.596;13.320;2022-08-19T15:55:48;23.20;99.90
16867;DHT22;8550;52.596;13.320;2022-08-19T16:00:50;23.10;99.90
16867;DHT22;8550;52.596;13.320;2022-08-19T16:06:11;23.00;99.90
16867;DHT22;8550;52.596;13.320;2022-08-19T16:11:30;22.90;99.90
16867;DHT22;8550;52.596;13.320;2022-08-19T16:16:34;22.90;99.90
16867;DHT22;8550;52.596;13.320;2022-08-19T16:21:37;22.80;99.90
16867;DHT22;8550;52.596;13.320;2022-08-19T16:26:40;22.80;99.90
16867;DHT22;8550;52.596;13.320;2022-08-19T16:31:44;22.80;99.90
16867;DHT22;8550;52.596;13.320;2022-08-19T16:36:47;22.90;99.90
16867;DHT22;8550;52.596;13.320;2022-08-19T16:41:50;22.90;99.90
16867;DHT22;8550;52.596;13.320;2022-08-19T16:46:52;23.10;99.90
16867;DHT22;8550;52.596;13.320;2022-08-19T16:51:55;23.20;99.90
16867;DHT22;8550;52.596;13.320;2022-08-19T16:56:57;23.20;99.90
16867;DHT22;8550;52.596;13.320;2022-08-19T17:01:59;23.00;99.90
16867;DHT22;8550;52.596;13.320;2022-08-19T17:07:02;22.80;99.90
16867;DHT22;8550;52.596;13.320;2022-08-19T17:12:05;22.60;99.90
16867;DHT22;8550;52.596;13.320;2022-08-19T17:17:07;22.40;99.90
16867;DHT22;8550;52.596;13.320;2022-08-19T17:22:13;22.40;99.90
16867;DHT22;8550;52.596;13.320;2022-08-19T17:27:15;22.30;99.90
16867;DHT22;8550;52.596;13.320;2022-08-19T17:32:19;22.30;99.90
16867;DHT22;8550;52.596;13.320;2022-08-19T17:37:22;22.10;99.90
16867;DHT22;8550;52.596;13.320;2022-08-19T17:42:24;21.90;99.90
16867;DHT22;8550;52.596;13.320;2022-08-19T17:47:26;21.80;99.90
16867;DHT22;8550;52.596;13.320;2022-08-19T17:52:30;21.80;99.90
16867;DHT22;8550;52.596;13.320;2022-08-19T17:57:31;21.80;99.90
16867;DHT22;8550;52.596;13.320;2022-08-19T18:02:33;21.80;99.90
16867;DHT22;8550;52.596;13.320;2022-08-19T18:07:36;21.70;99.90
16867;DHT22;8550;52.596;13.320;2022-08-19T18:12:38;21.70;99.90
16867;DHT22;8550;52.596;13.320;2022-08-19T18:17:40;21.70;99.90
16867;DHT22;8550;52.596;13.320;2022-08-19T18:22:46;21.80;99.90
16867;DHT22;8550;52.596;13.320;2022-08-19T18:27:48;21.80;99.90
16867;DHT22;8550;52.596;13.320;2022-08-19T18:32:51;21.80;99.90
16867;DHT22;8550;52.596;13.320;2022-08-19T18:37:55;21.80;99.90
16867;DHT22;8550;52.596;13.320;2022-08-19T18:42:57;21.90;99.90
16867;DHT22;8550;52.596;13.320;2022-08-19T18:48:19;21.80;99.90
16867;DHT22;8550;52.596;13.320;2022-08-19T18:53:40;21.80;99.90
16867;DHT22;8550;52.596;13.320;2022-08-19T18:58:43;21.70;99.90
16867;DHT22;8550;52.596;13.320;2022-08-19T19:03:48;21.60;99.90
16867;DHT22;8550;52.596;13.320;2022-08-19T19:08:52;21.70;99.90
16867;DHT22;8550;52.596;13.320;2022-08-19T19:13:54;21.70;99.90
16867;DHT22;8550;52.596;13.320;2022-08-19T19:18:56;21.70;99.90
16867;DHT22;8550;52.596;13.320;2022-08-19T19:24:00;21.60;99.90
16867;DHT22;8550;52.596;13.320;2022-08-19T19:29:02;21.70;99.90
16867;DHT22;8550;52.596;13.320;2022-08-19T19:34:04;21.70;99.90
16867;DHT22;8550;52.596;13.320;2022-08-19T19:39:07;21.70;99.90
16867;DHT22;8550;52.596;13.320;2022-08-19T19:44:09;21.70;99.90
16867;DHT22;8550;52.596;13.320;2022-08-19T19:49:12;21.70;99.90
16867;DHT22;8550;52.596;13.320;2022-08-19T19:54:16;21.60;99.90
16867;DHT22;8550;52.596;13.320;2022-08-19T19:59:18;21.60;99.90
16867;DHT22;8550;52.596;13.320;2022-08-19T20:04:20;21.60;99.90
16867;DHT22;8550;52.596;13.320;2022-08-19T20:09:23;21.60;99.90
16867;DHT22;8550;52.596;13.320;2022-08-19T20:14:27;21.60;99.90
16867;DHT22;8550;52.596;13.320;2022-08-19T20:19:32;21.50;99.90
16867;DHT22;8550;52.596;13.320;2022-08-19T20:24:38;21.40;99.90
16867;DHT22;8550;52.596;13.320;2022-08-19T20:29:41;21.50;99.90
16867;DHT22;8550;52.596;13.320;2022-08-19T20:34:43;21.50;99.90
16867;DHT22;8550;52.596;13.320;2022-08-19T20:39:49;21.50;99.90
16867;DHT22;8550;52.596;13.320;2022-08-19T20:44:51;21.50;99.90
16867;DHT22;8550;52.596;13.320;2022-08-19T20:49:53;21.40;99.90
16867;DHT22;8550;52.596;13.320;2022-08-19T20:54:56;21.40;99.90
16867;DHT22;8550;52.596;13.320;2022-08-19T20:59:58;21.40;99.90
16867;DHT22;8550;52.596;13.320;2022-08-19T21:05:00;21.30;99.90
16867;DHT22;8550;52.596;13.320;2022-08-19T21:10:04;21.40;99.90
16867;DHT22;8550;52.596;13.320;2022-08-19T21:15:07;21.40;99.90
16867;DHT22;8550;52.596;13.320;2022-08-19T21:20:09;21.40;99.90
16867;DHT22;8550;52.596;13.320;2022-08-19T21:25:12;21.40;99.90
16867;DHT22;8550;52.596;13.320;2022-08-19T21:30:15;21.40;99.90
16867;DHT22;8550;52.596;13.320;2022-08-19T21:35:17;21.40;99.90
16867;DHT22;8550;52.596;13.320;2022-08-19T21:40:21;21.40;99.90
16867;DHT22;8550;52.596;13.320;2022-08-19T21:45:23;21.40;99.90
16867;DHT22;8550;52.596;13.320;2022-08-19T21:50:26;21.40;99.90
16867;DHT22;8550;52.596;13.320;2022-08-19T21:55:29;21.30;99.90
16867;DHT22;8550;52.596;13.320;2022-08-19T22:00:31;21.40;99.90
16867;DHT22;8550;52.596;13.320;2022-08-19T22:05:34;21.40;99.90
16867;DHT22;8550;52.596;13.320;2022-08-19T22:10:38;21.30;99.90
16867;DHT22;8550;52.596;13.320;2022-08-19T22:15:40;21.30;99.90
16867;DHT22;8550;52.596;13.320;2022-08-19T22:20:42;21.30;99.90
16867;DHT22;8550;52.596;13.320;2022-08-19T22:25:46;21.40;99.90
16867;DHT22;8550;52.596;13.320;2022-08-19T22:30:48;21.40;99.90
16867;DHT22;8550;52.596;13.320;2022-08-19T22:35:51;21.40;99.90
16867;DHT22;8550;52.596;13.320;2022-08-19T22:40:54;21.30;99.90
16867;DHT22;8550;52.596;13.320;2022-08-19T22:45:58;21.20;99.90
16867;DHT22;8550;52.596;13.320;2022-08-19T22:51:00;21.20;99.90
16867;DHT22;8550;52.596;13.320;2022-08-19T22:56:21;21.10;99.90
16867;DHT22;8550;52.596;13.320;2022-08-19T23:01:23;21.10;99.90
16867;DHT22;8550;52.596;13.320;2022-08-19T23:06:25;21.10;99.90
16867;DHT22;8550;52.596;13.320;2022-08-19T23:11:29;21.10;99.90
16867;DHT22;8550;52.596;13.320;2022-08-19T23:16:32;21.10;99.90
16867;DHT22;8550;52.596;13.320;2022-08-19T23:21:35;21.10;99.90
16867;DHT22;8550;52.596;13.320;2022-08-19T23:26:38;21.10;99.90
16867;DHT22;8550;52.596;13.320;2022-08-19T23:32:02;21.00;99.90
16867;DHT22;8550;52.596;13.320;2022-08-19T23:37:06;20.90;99.90
16867;DHT22;8550;52.596;13.320;2022-08-19T23:42:10;20.90;99.90
16867;DHT22;8550;52.596;13.320;2022-08-19T23:47:13;20.90;99.90
16867;DHT22;8550;52.596;13.320;2022-08-19T23:52:14;20.90;99.90
16867;DHT22;8550;52.596;13.320;2022-08-19T23:57:18;20.90;99.90
